Terminal Aerodrome Forecast
Issued by NWS

Home | Current Version | Previous Version | Text Only | Print | Product List | Glossary On
Versions: 1 2 3 4 5 6 7 8 9 10 11 12 13 14 15 16
518
FTUS44 KLZK 101720
TAFLLQ
TAF
KLLQ 101720Z 1018/1118 12006KT P6SM BKN050
     FM110300 15005KT P6SM BKN040
     FM111200 16007KT P6SM OVC025=

USA.gov is the U.S. government's official web portal to all federal, state and local government web resources and services.